Time;durP1;ratioP1;P1;durP2;ratioP2;P2;SDS_P1;SDS_P2;PMS_P1;PMS_P2;Temp;Humidity;BMP_temperature;BMP_pressure;BME280_temperature;BME280_humidity;BME280_pressure;Samples;Min_cycle;Max_cycle;Signal;HPM_P1;HPM_P2
2021/07/29 00:00:40;;;;;;;8.10;1.75;;;;;;;;;;4345393;32;20507;-76
2021/07/29 00:02:46;;;;;;;6.60;1.60;;;;;;;;;;4349094;33;20155;-75
2021/07/29 00:05:32;;;;;;;3.80;1.70;;;;;;;;;;4345542;33;20163;-76
2021/07/29 00:08:19;;;;;;;4.68;1.60;;;;;;;;;;4343338;33;20159;-75
2021/07/29 00:10:44;;;;;;;5.62;2.10;;;;;;;;;;4357897;33;20237;-75
2021/07/29 00:16:26;;;;;;;4.32;2.00;;;;;;;;;;4307168;33;20156;-75
2021/07/29 00:19:52;;;;;;;5.62;1.95;;;;;;;;;;4307029;33;20228;-75
2021/07/29 00:22:42;;;;;;;6.50;2.12;;;;;;;;;;4345870;32;20242;-75
2021/07/29 00:28:05;;;;;;;10.07;2.50;;;;;;;;;;4357273;33;20610;-76
2021/07/29 00:30:30;;;;;;;6.07;2.40;;;;;;;;;;4345407;33;20163;-76
2021/07/29 00:33:05;;;;;;;8.95;2.47;;;;;;;;;;4345495;33;20182;-76
2021/07/29 00:35:33;;;;;;;10.60;3.00;;;;;;;;;;4345425;33;20158;-76
2021/07/29 00:38:05;;;;;;;10.70;3.20;;;;;;;;;;4344829;33;20183;-76
2021/07/29 00:40:31;;;;;;;12.20;3.97;;;;;;;;;;4358881;32;20143;-77
2021/07/29 00:42:57;;;;;;;19.02;5.18;;;;;;;;;;4357446;33;20222;-77
2021/07/29 00:45:22;;;;;;;18.83;5.00;;;;;;;;;;4357177;33;20189;-77
2021/07/29 00:47:53;;;;;;;17.62;3.60;;;;;;;;;;4357484;33;20214;-77
2021/07/29 00:50:27;;;;;;;12.15;3.42;;;;;;;;;;4358899;32;20161;-77
2021/07/29 00:52:53;;;;;;;10.90;3.78;;;;;;;;;;4357312;33;20162;-78
2021/07/29 00:55:22;;;;;;;9.95;3.62;;;;;;;;;;4357044;33;20231;-77
2021/07/29 00:57:50;;;;;;;12.37;3.97;;;;;;;;;;4358522;32;20169;-77
2021/07/29 01:00:18;;;;;;;12.45;3.37;;;;;;;;;;4356927;33;20542;-77
2021/07/29 01:02:44;;;;;;;16.15;3.80;;;;;;;;;;4356350;33;20202;-77
2021/07/29 01:05:17;;;;;;;10.70;3.22;;;;;;;;;;4357368;33;20212;-78
2021/07/29 01:07:45;;;;;;;15.80;3.40;;;;;;;;;;4359172;32;20188;-77
2021/07/29 01:10:28;;;;;;;12.07;3.40;;;;;;;;;;4356674;33;20159;-77
2021/07/29 01:12:53;;;;;;;10.13;3.12;;;;;;;;;;4357139;32;20242;-76
2021/07/29 01:15:19;;;;;;;16.62;3.72;;;;;;;;;;4356856;32;20607;-76
2021/07/29 01:17:44;;;;;;;12.63;3.37;;;;;;;;;;4356808;32;20190;-77
2021/07/29 01:20:09;;;;;;;12.32;3.42;;;;;;;;;;4356885;32;20166;-77
2021/07/29 01:22:36;;;;;;;18.37;3.85;;;;;;;;;;4357435;32;20238;-77
2021/07/29 01:25:10;;;;;;;16.50;3.80;;;;;;;;;;4356784;32;20167;-77
2021/07/29 01:28:06;;;;;;;18.70;4.32;;;;;;;;;;4358788;32;20171;-77
2021/07/29 01:30:28;;;;;;;10.13;3.67;;;;;;;;;;4357439;32;20484;-76
2021/07/29 01:32:54;;;;;;;16.98;4.25;;;;;;;;;;4357188;32;20194;-77
2021/07/29 01:35:34;;;;;;;15.35;4.12;;;;;;;;;;4356600;32;20519;-77
2021/07/29 01:38:02;;;;;;;15.60;4.22;;;;;;;;;;4356222;33;20194;-77
2021/07/29 01:40:31;;;;;;;13.10;3.97;;;;;;;;;;4356825;32;20584;-76
2021/07/29 01:45:53;;;;;;;21.40;4.68;;;;;;;;;;4357718;33;20174;-77
2021/07/29 01:48:22;;;;;;;17.70;4.20;;;;;;;;;;4357233;32;20158;-77
2021/07/29 01:51:01;;;;;;;16.02;4.28;;;;;;;;;;4356481;33;20186;-77
2021/07/29 01:59:45;;;;;;;;;;;;;;;;;;;;;
2021/07/29 02:02:26;;;;;;;13.68;3.40;;;;;;;;;;4322648;33;20179;-76
2021/07/29 02:05:01;;;;;;;16.00;3.10;;;;;;;;;;4326263;32;20576;-77
2021/07/29 02:07:53;;;;;;;9.55;2.45;;;;;;;;;;4313780;33;20662;-76
2021/07/29 02:13:41;;;;;;;11.15;2.87;;;;;;;;;;4334600;32;20179;-77
2021/07/29 02:16:35;;;;;;;16.05;2.90;;;;;;;;;;4314010;32;20237;-77
2021/07/29 02:19:00;;;;;;;8.73;2.30;;;;;;;;;;4365243;32;20217;-77
2021/07/29 02:21:25;;;;;;;7.72;2.42;;;;;;;;;;4313742;32;20168;-76
2021/07/29 02:23:51;;;;;;;9.90;2.47;;;;;;;;;;4349091;32;20514;-77
2021/07/29 02:26:16;;;;;;;10.95;2.42;;;;;;;;;;4356782;32;20576;-77
2021/07/29 02:28:42;;;;;;;16.98;2.40;;;;;;;;;;4358021;32;20184;-77
2021/07/29 02:31:16;;;;;;;12.27;2.78;;;;;;;;;;4356688;32;20539;-77
2021/07/29 02:33:44;;;;;;;14.87;2.78;;;;;;;;;;4357039;32;20161;-77
2021/07/29 02:36:10;;;;;;;8.52;2.50;;;;;;;;;;4357101;32;20183;-77
2021/07/29 02:38:35;;;;;;;12.95;2.80;;;;;;;;;;4381352;32;20169;-77
2021/07/29 02:41:00;;;;;;;8.80;2.60;;;;;;;;;;4423580;32;20161;-77
2021/07/29 02:43:35;;;;;;;9.68;2.50;;;;;;;;;;4423999;32;20157;-77
2021/07/29 02:46:00;;;;;;;9.13;2.70;;;;;;;;;;4423928;32;20179;-77
2021/07/29 02:48:28;;;;;;;11.48;3.03;;;;;;;;;;4423704;32;20567;-77
2021/07/29 02:50:57;;;;;;;9.65;2.53;;;;;;;;;;4423677;32;20185;-77
2021/07/29 02:53:24;;;;;;;11.07;2.47;;;;;;;;;;4423591;32;20154;-77
2021/07/29 02:55:57;;;;;;;10.65;2.92;;;;;;;;;;4423733;32;20539;-77
2021/07/29 02:58:22;;;;;;;7.53;2.30;;;;;;;;;;4424316;32;20161;-77
2021/07/29 03:00:47;;;;;;;12.32;2.72;;;;;;;;;;4423816;32;20243;-77
2021/07/29 03:03:21;;;;;;;7.62;3.10;;;;;;;;;;4423297;32;20157;-77
2021/07/29 03:05:47;;;;;;;6.85;2.08;;;;;;;;;;4438423;32;20254;-77
2021/07/29 03:08:18;;;;;;;11.38;2.45;;;;;;;;;;4423824;32;20153;-77
2021/07/29 03:10:49;;;;;;;7.10;2.47;;;;;;;;;;4423803;32;20224;-76
2021/07/29 03:13:15;;;;;;;7.50;2.35;;;;;;;;;;4423755;32;20193;-77
2021/07/29 03:15:40;;;;;;;8.80;2.70;;;;;;;;;;4416917;32;20491;-77
2021/07/29 03:18:05;;;;;;;9.13;2.45;;;;;;;;;;4408226;32;20158;-77
2021/07/29 03:20:40;;;;;;;7.78;2.00;;;;;;;;;;4408342;32;20509;-77
2021/07/29 03:23:05;;;;;;;6.93;2.12;;;;;;;;;;4409202;32;20202;-77
2021/07/29 03:25:34;;;;;;;8.40;2.12;;;;;;;;;;4417023;32;20236;-77
2021/07/29 03:27:59;;;;;;;8.05;2.03;;;;;;;;;;4423047;32;20195;-77
2021/07/29 03:30:24;;;;;;;9.38;2.22;;;;;;;;;;4423046;32;20570;-77
2021/07/29 03:32:50;;;;;;;7.70;2.10;;;;;;;;;;4422962;32;20149;-77
2021/07/29 03:35:18;;;;;;;9.07;1.85;;;;;;;;;;4418464;32;20218;-77
2021/07/29 03:37:43;;;;;;;9.30;2.20;;;;;;;;;;4415359;32;20141;-77
2021/07/29 03:40:19;;;;;;;8.80;2.45;;;;;;;;;;4345480;33;20547;-77
2021/07/29 03:42:56;;;;;;;7.85;1.90;;;;;;;;;;4345953;33;20197;-77
2021/07/29 03:45:21;;;;;;;8.88;2.58;;;;;;;;;;4345739;33;20142;-76
2021/07/29 03:47:46;;;;;;;9.93;2.50;;;;;;;;;;4345580;32;20185;-76
2021/07/29 03:50:12;;;;;;;9.77;2.67;;;;;;;;;;4345639;33;20178;-76
2021/07/29 03:52:58;;;;;;;9.85;2.75;;;;;;;;;;4359894;33;20128;-76
2021/07/29 03:55:31;;;;;;;8.38;2.80;;;;;;;;;;4358843;33;20170;-76
2021/07/29 03:58:03;;;;;;;9.15;3.40;;;;;;;;;;4359223;33;20127;-76
2021/07/29 04:00:29;;;;;;;13.43;3.70;;;;;;;;;;4345357;33;20177;-76
2021/07/29 04:02:54;;;;;;;13.60;4.37;;;;;;;;;;4345399;33;20190;-76
2021/07/29 04:05:33;;;;;;;15.48;4.28;;;;;;;;;;4345260;32;20219;-78
2021/07/29 04:08:09;;;;;;;18.90;5.12;;;;;;;;;;4345330;32;20155;-77
2021/07/29 04:10:35;;;;;;;19.95;4.37;;;;;;;;;;4345961;33;20182;-78
2021/07/29 04:13:03;;;;;;;23.33;5.12;;;;;;;;;;4383031;32;20155;-77
2021/07/29 04:15:37;;;;;;;19.02;5.85;;;;;;;;;;4394645;32;20158;-78
2021/07/29 04:18:05;;;;;;;17.35;5.87;;;;;;;;;;4394440;32;20584;-78
2021/07/29 04:20:35;;;;;;;24.48;5.15;;;;;;;;;;4394232;32;20175;-78
2021/07/29 04:23:07;;;;;;;19.17;5.03;;;;;;;;;;4394598;32;20557;-78
2021/07/29 04:25:38;;;;;;;21.83;4.87;;;;;;;;;;4343129;33;20155;-77
2021/07/29 04:28:25;;;;;;;20.37;5.30;;;;;;;;;;4342350;32;20669;-77
2021/07/29 04:30:51;;;;;;;17.17;5.07;;;;;;;;;;4342032;32;20605;-77
2021/07/29 04:33:16;;;;;;;14.10;4.18;;;;;;;;;;4344210;33;20127;-78
2021/07/29 04:35:44;;;;;;;19.98;4.65;;;;;;;;;;4342665;33;20159;-77
2021/07/29 04:38:15;;;;;;;15.90;4.65;;;;;;;;;;4351609;32;20151;-77
2021/07/29 04:40:40;;;;;;;14.10;4.53;;;;;;;;;;4355404;32;20155;-75
2021/07/29 04:43:06;;;;;;;21.50;4.95;;;;;;;;;;4357053;32;20155;-77
2021/07/29 04:45:32;;;;;;;13.52;3.92;;;;;;;;;;4357281;32;20211;-77
2021/07/29 04:48:06;;;;;;;18.60;5.12;;;;;;;;;;4357493;32;20230;-77
2021/07/29 04:50:34;;;;;;;13.85;4.65;;;;;;;;;;4358033;33;20143;-78
2021/07/29 04:53:02;;;;;;;28.20;5.62;;;;;;;;;;4356905;33;20212;-78
2021/07/29 04:55:28;;;;;;;21.33;5.05;;;;;;;;;;4356982;32;20159;-78
2021/07/29 04:57:53;;;;;;;14.70;5.03;;;;;;;;;;4357159;33;20209;-77
2021/07/29 05:00:18;;;;;;;17.35;5.32;;;;;;;;;;4357271;33;20163;-79
2021/07/29 05:02:43;;;;;;;22.42;5.78;;;;;;;;;;4360464;32;20190;-78
2021/07/29 05:05:09;;;;;;;18.80;5.03;;;;;;;;;;4359980;32;20151;-78
2021/07/29 05:07:34;;;;;;;18.00;4.75;;;;;;;;;;4359979;32;20166;-78
2021/07/29 05:10:00;;;;;;;19.40;4.85;;;;;;;;;;4359595;32;20182;-78
2021/07/29 05:12:32;;;;;;;15.55;4.20;;;;;;;;;;4359710;32;20257;-78
2021/07/29 05:15:02;;;;;;;13.43;3.97;;;;;;;;;;4373702;32;20525;-79
2021/07/29 05:17:36;;;;;;;12.55;3.62;;;;;;;;;;4359733;32;20680;-77
2021/07/29 05:20:01;;;;;;;18.23;4.78;;;;;;;;;;4360113;32;20147;-78
2021/07/29 05:22:26;;;;;;;17.92;5.00;;;;;;;;;;4359898;32;20693;-78
2021/07/29 05:24:54;;;;;;;13.57;4.60;;;;;;;;;;4359226;32;20155;-79
2021/07/29 05:27:19;;;;;;;17.65;5.40;;;;;;;;;;4358993;32;20596;-79
2021/07/29 05:29:45;;;;;;;26.55;5.65;;;;;;;;;;4359470;32;20243;-78
2021/07/29 05:32:10;;;;;;;18.87;4.53;;;;;;;;;;4359635;32;20178;-78
2021/07/29 05:34:38;;;;;;;15.05;4.10;;;;;;;;;;4359200;32;20214;-78
2021/07/29 05:37:07;;;;;;;13.60;4.18;;;;;;;;;;4341103;32;20163;-77
2021/07/29 05:39:33;;;;;;;15.45;3.30;;;;;;;;;;4344349;33;20217;-79
2021/07/29 05:41:58;;;;;;;16.12;4.72;;;;;;;;;;4344273;32;20585;-77
2021/07/29 05:44:23;;;;;;;19.37;5.22;;;;;;;;;;4344147;32;20210;-78
2021/07/29 05:46:49;;;;;;;21.42;4.95;;;;;;;;;;4345747;33;20477;-79
2021/07/29 05:49:14;;;;;;;17.37;4.72;;;;;;;;;;4354087;32;20656;-78
2021/07/29 05:51:45;;;;;;;15.00;4.97;;;;;;;;;;4358798;32;20166;-79
2021/07/29 05:54:16;;;;;;;21.92;5.72;;;;;;;;;;4354514;32;20155;-78
2021/07/29 05:56:50;;;;;;;16.27;4.97;;;;;;;;;;4346960;33;20166;-78
2021/07/29 05:59:19;;;;;;;15.05;4.80;;;;;;;;;;4346637;33;20236;-78
2021/07/29 06:01:54;;;;;;;17.40;4.65;;;;;;;;;;4334310;33;20220;-78
2021/07/29 06:04:29;;;;;;;17.70;3.85;;;;;;;;;;4347413;33;20154;-79
2021/07/29 06:06:54;;;;;;;12.13;3.22;;;;;;;;;;4346475;33;20621;-76
2021/07/29 06:09:23;;;;;;;15.07;3.42;;;;;;;;;;4346466;33;20182;-79
2021/07/29 06:11:48;;;;;;;12.48;3.40;;;;;;;;;;4346605;33;20207;-79
2021/07/29 06:14:13;;;;;;;14.07;3.50;;;;;;;;;;4361686;32;20552;-79
2021/07/29 06:16:42;;;;;;;11.30;2.83;;;;;;;;;;4360613;33;20284;-79
2021/07/29 06:19:10;;;;;;;11.77;2.80;;;;;;;;;;4359045;33;20182;-78
2021/07/29 06:21:36;;;;;;;13.70;2.72;;;;;;;;;;4360987;32;20167;-78
2021/07/29 06:24:02;;;;;;;15.05;2.92;;;;;;;;;;4361166;32;20618;-78
2021/07/29 06:26:34;;;;;;;10.75;2.85;;;;;;;;;;4361239;32;20154;-78
2021/07/29 06:28:59;;;;;;;15.25;3.53;;;;;;;;;;4361466;32;20201;-78
2021/07/29 06:31:24;;;;;;;18.40;4.28;;;;;;;;;;4348455;32;20486;-79
2021/07/29 06:33:52;;;;;;;11.32;3.35;;;;;;;;;;4361143;32;20582;-78
2021/07/29 06:36:18;;;;;;;12.35;3.08;;;;;;;;;;4361046;32;20203;-77
2021/07/29 06:38:46;;;;;;;13.95;3.37;;;;;;;;;;4358100;33;20276;-76
2021/07/29 06:41:11;;;;;;;15.57;3.58;;;;;;;;;;4358553;32;20683;-77
2021/07/29 06:43:47;;;;;;;15.32;3.10;;;;;;;;;;4360797;33;20198;-78
2021/07/29 06:46:15;;;;;;;13.82;2.97;;;;;;;;;;4362439;32;20186;-78
2021/07/29 06:48:46;;;;;;;13.60;3.42;;;;;;;;;;4348335;32;20182;-78
2021/07/29 06:51:18;;;;;;;11.25;2.60;;;;;;;;;;4375162;32;20171;-78
2021/07/29 06:53:52;;;;;;;11.50;3.00;;;;;;;;;;4372757;32;20166;-77
2021/07/29 06:56:17;;;;;;;22.42;4.45;;;;;;;;;;4419309;32;20153;-77
2021/07/29 06:58:43;;;;;;;14.48;2.78;;;;;;;;;;4423924;32;20489;-78
2021/07/29 07:01:08;;;;;;;11.05;2.83;;;;;;;;;;4422827;32;20497;-77
2021/07/29 07:03:34;;;;;;;12.82;3.55;;;;;;;;;;4423448;32;20192;-78
2021/07/29 07:06:02;;;;;;;11.23;2.78;;;;;;;;;;4423653;32;20179;-77
2021/07/29 07:08:44;;;;;;;13.77;3.22;;;;;;;;;;4419745;32;20251;-79
2021/07/29 07:11:19;;;;;;;9.93;2.60;;;;;;;;;;4346178;33;20205;-78
2021/07/29 07:14:06;;;;;;;10.90;2.65;;;;;;;;;;4358666;33;20182;-77
2021/07/29 07:16:42;;;;;;;12.32;2.90;;;;;;;;;;4360328;33;20124;-78
2021/07/29 07:19:08;;;;;;;9.97;2.50;;;;;;;;;;4359392;33;20127;-77
2021/07/29 07:22:10;;;;;;;9.98;3.15;;;;;;;;;;4345525;32;20706;-78
2021/07/29 07:24:35;;;;;;;13.45;2.70;;;;;;;;;;4350409;33;20193;-79
2021/07/29 07:27:10;;;;;;;8.05;2.42;;;;;;;;;;4360001;32;20154;-78
2021/07/29 07:29:47;;;;;;;14.65;2.80;;;;;;;;;;4359599;32;20579;-79
2021/07/29 07:32:12;;;;;;;10.05;2.40;;;;;;;;;;4358984;33;20572;-78
2021/07/29 07:35:00;;;;;;;8.65;2.53;;;;;;;;;;4357507;33;20158;-77
2021/07/29 07:37:25;;;;;;;10.00;2.40;;;;;;;;;;4367660;32;20247;-77
2021/07/29 07:39:51;;;;;;;10.05;2.47;;;;;;;;;;4342688;32;20176;-81
2021/07/29 07:42:22;;;;;;;15.57;2.12;;;;;;;;;;4344713;33;20145;-78
2021/07/29 07:44:55;;;;;;;10.43;2.47;;;;;;;;;;4344969;33;20123;-77
2021/07/29 07:47:26;;;;;;;11.88;2.08;;;;;;;;;;4343126;33;20194;-78
2021/07/29 07:49:53;;;;;;;10.13;2.03;;;;;;;;;;4331811;33;20171;-78
2021/07/29 07:52:18;;;;;;;8.73;2.15;;;;;;;;;;4343112;33;20178;-78
2021/07/29 07:54:43;;;;;;;10.70;2.28;;;;;;;;;;4342890;32;20187;-77
2021/07/29 07:57:11;;;;;;;10.98;2.35;;;;;;;;;;4343284;33;20155;-78
2021/07/29 07:59:37;;;;;;;8.77;2.62;;;;;;;;;;4345032;33;20160;-78
2021/07/29 08:02:22;;;;;;;8.45;2.15;;;;;;;;;;4344932;32;20151;-77
2021/07/29 08:04:49;;;;;;;8.38;2.08;;;;;;;;;;4345794;32;20170;-78
2021/07/29 08:07:17;;;;;;;8.90;1.98;;;;;;;;;;4358667;33;20231;-77
2021/07/29 08:09:43;;;;;;;5.40;1.90;;;;;;;;;;4345224;32;20152;-78
2021/07/29 08:12:12;;;;;;;8.70;1.98;;;;;;;;;;4344684;33;20162;-77
2021/07/29 08:14:40;;;;;;;5.93;2.10;;;;;;;;;;4358650;33;20583;-77
2021/07/29 08:17:08;;;;;;;7.07;1.55;;;;;;;;;;4358761;33;20478;-77
2021/07/29 08:19:33;;;;;;;7.82;1.77;;;;;;;;;;4345330;33;20485;-77
2021/07/29 08:22:02;;;;;;;7.53;2.08;;;;;;;;;;4345589;33;20216;-78
2021/07/29 08:24:27;;;;;;;5.68;2.05;;;;;;;;;;4358592;33;20539;-77
2021/07/29 08:26:53;;;;;;;6.30;1.90;;;;;;;;;;4358302;33;20195;-77
2021/07/29 08:29:21;;;;;;;6.50;1.87;;;;;;;;;;4359368;33;20204;-76
2021/07/29 08:31:47;;;;;;;5.62;2.40;;;;;;;;;;4344526;33;20514;-74
2021/07/29 08:34:15;;;;;;;7.47;2.20;;;;;;;;;;4343652;32;20230;-76
2021/07/29 08:36:42;;;;;;;4.82;1.77;;;;;;;;;;4344414;32;20208;-77
2021/07/29 08:41:40;;;;;;;6.22;1.98;;;;;;;;;;4357784;33;20611;-74
2021/07/29 08:44:05;;;;;;;5.25;1.73;;;;;;;;;;4357994;32;20144;-76
2021/07/29 08:46:35;;;;;;;5.20;1.67;;;;;;;;;;4344987;32;20171;-77
2021/07/29 08:49:05;;;;;;;4.55;1.60;;;;;;;;;;4345212;33;20155;-78
2021/07/29 08:51:40;;;;;;;4.93;1.65;;;;;;;;;;4344868;32;20160;-77
2021/07/29 08:54:14;;;;;;;5.07;1.52;;;;;;;;;;4343888;33;20166;-74
2021/07/29 08:56:40;;;;;;;3.45;1.60;;;;;;;;;;4340727;33;20166;-77
2021/07/29 08:59:07;;;;;;;5.30;1.55;;;;;;;;;;4366439;32;20163;-77
2021/07/29 09:02:00;;;;;;;7.18;1.70;;;;;;;;;;4344118;33;20162;-77
2021/07/29 09:04:25;;;;;;;7.97;1.73;;;;;;;;;;4344396;32;20242;-77
2021/07/29 09:06:56;;;;;;;6.55;1.90;;;;;;;;;;4343830;33;20171;-77
2021/07/29 09:09:39;;;;;;;8.27;1.75;;;;;;;;;;4344176;32;20224;-76
2021/07/29 09:12:15;;;;;;;7.70;2.00;;;;;;;;;;4344804;32;20657;-75
2021/07/29 09:14:41;;;;;;;6.37;1.48;;;;;;;;;;4344282;32;20224;-76
2021/07/29 09:17:09;;;;;;;3.03;1.40;;;;;;;;;;4345376;32;20159;-78
2021/07/29 09:19:41;;;;;;;5.22;1.92;;;;;;;;;;4344320;33;20198;-77
2021/07/29 09:22:28;;;;;;;4.55;1.80;;;;;;;;;;4357609;33;20552;-76
2021/07/29 09:24:55;;;;;;;7.68;2.15;;;;;;;;;;4358095;33;20195;-76
2021/07/29 09:27:20;;;;;;;6.47;1.70;;;;;;;;;;4344340;33;20190;-75
2021/07/29 09:29:46;;;;;;;6.40;1.67;;;;;;;;;;4370049;32;20202;-78
2021/07/29 09:32:20;;;;;;;5.18;1.52;;;;;;;;;;4357159;33;20182;-78
2021/07/29 09:34:52;;;;;;;5.82;1.62;;;;;;;;;;4329713;33;20162;-78
2021/07/29 09:37:19;;;;;;;7.90;1.83;;;;;;;;;;4343025;33;20178;-78
2021/07/29 09:39:45;;;;;;;7.30;1.77;;;;;;;;;;4329175;33;20229;-79
2021/07/29 09:42:13;;;;;;;5.40;1.67;;;;;;;;;;4342979;33;20147;-79
2021/07/29 09:44:43;;;;;;;8.50;2.00;;;;;;;;;;4329414;33;20163;-78
2021/07/29 09:47:10;;;;;;;10.73;2.28;;;;;;;;;;4329225;33;20180;-78
2021/07/29 09:49:35;;;;;;;5.50;1.58;;;;;;;;;;4330028;33;20188;-81
2021/07/29 09:52:02;;;;;;;3.92;1.40;;;;;;;;;;4358017;32;20543;-80
2021/07/29 09:54:31;;;;;;;3.22;1.42;;;;;;;;;;4345257;32;20572;-80
2021/07/29 09:57:13;;;;;;;7.78;1.50;;;;;;;;;;4361510;32;20163;-80
2021/07/29 09:59:41;;;;;;;7.45;1.50;;;;;;;;;;4358907;32;20250;-79
2021/07/29 10:02:10;;;;;;;8.40;1.50;;;;;;;;;;4355205;33;20189;-79
2021/07/29 10:04:43;;;;;;;4.18;1.60;;;;;;;;;;4341631;33;20190;-80
2021/07/29 10:07:16;;;;;;;5.15;1.58;;;;;;;;;;4343798;32;20599;-76
2021/07/29 10:09:45;;;;;;;4.75;1.35;;;;;;;;;;4357348;33;20147;-77
2021/07/29 10:12:17;;;;;;;3.67;1.30;;;;;;;;;;4357297;33;20151;-77
2021/07/29 10:14:46;;;;;;;6.32;1.48;;;;;;;;;;4344137;32;20167;-77
2021/07/29 10:17:11;;;;;;;3.87;1.12;;;;;;;;;;4343548;32;20185;-77
2021/07/29 10:19:56;;;;;;;6.07;1.35;;;;;;;;;;4343625;33;20159;-74
2021/07/29 10:22:22;;;;;;;6.37;1.40;;;;;;;;;;4344168;32;20166;-74
2021/07/29 10:24:52;;;;;;;8.63;1.65;;;;;;;;;;4343742;33;20162;-75
2021/07/29 10:27:17;;;;;;;3.60;1.20;;;;;;;;;;4358059;32;20144;-77
2021/07/29 10:29:42;;;;;;;4.75;1.35;;;;;;;;;;4348211;32;20585;-76
2021/07/29 10:32:11;;;;;;;2.70;1.10;;;;;;;;;;4342863;32;20171;-76
2021/07/29 10:34:37;;;;;;;3.12;1.50;;;;;;;;;;4357181;33;20174;-75
2021/07/29 10:37:03;;;;;;;5.68;1.30;;;;;;;;;;4345751;32;20179;-76
2021/07/29 10:39:29;;;;;;;3.85;1.35;;;;;;;;;;4349972;32;20182;-77
2021/07/29 10:41:58;;;;;;;5.70;1.52;;;;;;;;;;4361108;32;20251;-71
2021/07/29 10:44:35;;;;;;;4.00;1.55;;;;;;;;;;4389585;32;20599;-75
2021/07/29 10:47:07;;;;;;;3.65;1.90;;;;;;;;;;4353949;32;20592;-77
2021/07/29 10:49:45;;;;;;;8.65;2.00;;;;;;;;;;4347921;33;20160;-75
2021/07/29 10:52:13;;;;;;;4.85;1.40;;;;;;;;;;4345651;33;20204;-75
2021/07/29 10:54:39;;;;;;;7.03;1.77;;;;;;;;;;4359356;33;20204;-75
2021/07/29 10:57:06;;;;;;;7.50;1.55;;;;;;;;;;4333903;33;20214;-75
2021/07/29 10:59:31;;;;;;;3.72;1.52;;;;;;;;;;4359515;33;20158;-76
2021/07/29 11:02:16;;;;;;;7.05;1.98;;;;;;;;;;4346578;32;20228;-76
2021/07/29 11:04:58;;;;;;;4.80;1.40;;;;;;;;;;4365147;32;20178;-77
2021/07/29 11:07:24;;;;;;;4.78;1.40;;;;;;;;;;4346998;32;20218;-78
2021/07/29 11:10:07;;;;;;;7.60;2.03;;;;;;;;;;4371523;32;20157;-75
2021/07/29 11:12:35;;;;;;;6.28;1.60;;;;;;;;;;4410785;32;20163;-77
2021/07/29 11:15:02;;;;;;;8.43;1.92;;;;;;;;;;4360550;32;20564;-77
2021/07/29 11:17:33;;;;;;;10.40;1.70;;;;;;;;;;4360557;32;20159;-77
2021/07/29 11:19:58;;;;;;;6.90;1.60;;;;;;;;;;4346412;32;20210;-77
2021/07/29 11:22:43;;;;;;;6.87;1.52;;;;;;;;;;4359475;33;20131;-74
2021/07/29 11:25:09;;;;;;;6.95;1.75;;;;;;;;;;4358907;33;20143;-76
2021/07/29 11:27:34;;;;;;;9.02;1.70;;;;;;;;;;4345633;33;20206;-76
2021/07/29 11:30:00;;;;;;;8.02;1.80;;;;;;;;;;4346116;33;20190;-77
2021/07/29 11:32:52;;;;;;;6.37;1.67;;;;;;;;;;4360011;33;20525;-77
2021/07/29 11:35:20;;;;;;;6.45;1.50;;;;;;;;;;4359482;33;20194;-76
2021/07/29 11:37:46;;;;;;;9.23;2.08;;;;;;;;;;4377268;32;20149;-76
2021/07/29 11:40:18;;;;;;;7.30;1.80;;;;;;;;;;4422412;32;20309;-73
2021/07/29 11:42:43;;;;;;;8.25;1.95;;;;;;;;;;4423026;32;20168;-77
2021/07/29 11:45:21;;;;;;;7.55;2.08;;;;;;;;;;4422002;32;20218;-76
2021/07/29 11:47:47;;;;;;;8.60;2.22;;;;;;;;;;4422788;32;20250;-75
2021/07/29 11:50:14;;;;;;;6.75;2.08;;;;;;;;;;4422523;32;20208;-76
2021/07/29 11:52:50;;;;;;;9.98;2.20;;;;;;;;;;4422558;32;20219;-76
2021/07/29 11:55:16;;;;;;;6.57;2.08;;;;;;;;;;4422766;32;20187;-77
2021/07/29 11:57:43;;;;;;;9.23;2.17;;;;;;;;;;4423374;32;20181;-77
2021/07/29 12:00:16;;;;;;;10.70;2.17;;;;;;;;;;4422929;32;20206;-77
2021/07/29 12:02:42;;;;;;;9.40;2.35;;;;;;;;;;4408180;32;20254;-77
2021/07/29 12:05:10;;;;;;;14.30;2.97;;;;;;;;;;4412069;32;20191;-76
2021/07/29 12:07:37;;;;;;;10.93;2.67;;;;;;;;;;4408125;32;20165;-76
2021/07/29 12:10:03;;;;;;;10.40;2.65;;;;;;;;;;4410845;32;20209;-78
2021/07/29 12:12:32;;;;;;;9.43;2.50;;;;;;;;;;4410893;32;20234;-78
2021/07/29 12:14:57;;;;;;;7.28;2.20;;;;;;;;;;4410981;32;20188;-76
2021/07/29 12:17:23;;;;;;;7.95;2.42;;;;;;;;;;4406566;32;20220;-76
2021/07/29 12:19:55;;;;;;;8.88;2.00;;;;;;;;;;4415748;32;20169;-78
2021/07/29 12:22:24;;;;;;;11.68;2.40;;;;;;;;;;4419485;32;20602;-77
2021/07/29 12:24:50;;;;;;;8.35;2.45;;;;;;;;;;4407308;32;20239;-79
2021/07/29 12:27:24;;;;;;;8.73;2.42;;;;;;;;;;4406860;32;20177;-78
2021/07/29 12:29:50;;;;;;;9.80;2.30;;;;;;;;;;4406044;32;20168;-77
2021/07/29 12:32:19;;;;;;;9.43;2.12;;;;;;;;;;4420548;32;20602;-74
2021/07/29 12:34:44;;;;;;;6.82;1.90;;;;;;;;;;4419873;32;20205;-74
2021/07/29 12:37:09;;;;;;;7.45;2.00;;;;;;;;;;4419630;32;20571;-77
2021/07/29 12:39:36;;;;;;;8.75;2.30;;;;;;;;;;4389433;32;20176;-76
2021/07/29 12:42:25;;;;;;;7.40;1.87;;;;;;;;;;4357761;32;20556;-78
2021/07/29 12:45:10;;;;;;;8.10;1.98;;;;;;;;;;4344962;33;20185;-71
2021/07/29 12:47:36;;;;;;;9.40;2.28;;;;;;;;;;4344654;33;20174;-75
2021/07/29 12:50:02;;;;;;;5.75;1.83;;;;;;;;;;4366459;32;20222;-74
2021/07/29 12:52:27;;;;;;;10.40;1.90;;;;;;;;;;4421871;32;20162;-76
2021/07/29 12:55:09;;;;;;;5.80;1.90;;;;;;;;;;4392024;32;20193;-78
2021/07/29 12:57:53;;;;;;;7.70;2.28;;;;;;;;;;4387933;32;20191;-78
2021/07/29 13:00:19;;;;;;;9.23;2.30;;;;;;;;;;4333209;32;20189;-76
2021/07/29 13:02:45;;;;;;;7.05;2.40;;;;;;;;;;4358132;33;20236;-77
2021/07/29 13:05:11;;;;;;;9.88;2.47;;;;;;;;;;4344854;33;20162;-77
2021/07/29 13:07:37;;;;;;;9.57;2.40;;;;;;;;;;4331907;33;20189;-76
2021/07/29 13:10:04;;;;;;;7.47;2.10;;;;;;;;;;4344249;33;20170;-77
2021/07/29 13:12:30;;;;;;;9.02;2.47;;;;;;;;;;4344565;33;20182;-75
2021/07/29 13:15:00;;;;;;;11.30;2.58;;;;;;;;;;4343107;33;20235;-79
2021/07/29 13:17:28;;;;;;;5.87;1.80;;;;;;;;;;4343911;33;20163;-78
2021/07/29 13:19:56;;;;;;;8.15;1.80;;;;;;;;;;4357619;32;20523;-79
2021/07/29 13:22:22;;;;;;;7.60;2.15;;;;;;;;;;4344780;33;20527;-75
2021/07/29 13:24:58;;;;;;;6.65;1.98;;;;;;;;;;4344882;33;20186;-77
2021/07/29 13:27:23;;;;;;;8.00;1.98;;;;;;;;;;4357129;32;20668;-77
2021/07/29 13:29:48;;;;;;;8.07;1.85;;;;;;;;;;4356824;32;20160;-79
2021/07/29 13:32:13;;;;;;;4.93;1.50;;;;;;;;;;4356473;32;20171;-75
2021/07/29 13:34:38;;;;;;;6.78;2.20;;;;;;;;;;4356370;32;20584;-72
2021/07/29 13:37:05;;;;;;;12.20;2.10;;;;;;;;;;4358341;32;20545;-78
2021/07/29 13:39:31;;;;;;;7.70;2.97;;;;;;;;;;4356753;32;20252;-74
2021/07/29 13:41:59;;;;;;;6.32;1.80;;;;;;;;;;4362354;32;20154;-79
2021/07/29 13:44:25;;;;;;;6.85;1.67;;;;;;;;;;4352552;33;20233;-78
2021/07/29 13:46:50;;;;;;;6.47;2.00;;;;;;;;;;4345039;33;20162;-78
2021/07/29 13:49:18;;;;;;;9.32;1.80;;;;;;;;;;4358287;32;20165;-75
2021/07/29 13:51:43;;;;;;;7.30;2.00;;;;;;;;;;4356497;32;20159;-78
2021/07/29 13:54:09;;;;;;;6.47;1.60;;;;;;;;;;4392942;32;20551;-77
2021/07/29 13:56:34;;;;;;;8.75;1.75;;;;;;;;;;4374379;32;20340;-78
2021/07/29 13:59:01;;;;;;;6.95;1.70;;;;;;;;;;4356349;32;20166;-79
2021/07/29 14:01:26;;;;;;;8.63;2.87;;;;;;;;;;4356753;32;20159;-79
2021/07/29 14:03:52;;;;;;;7.37;1.90;;;;;;;;;;4350304;32;20194;-73
2021/07/29 14:06:20;;;;;;;6.50;1.90;;;;;;;;;;4356787;32;20143;-78
2021/07/29 14:08:46;;;;;;;5.53;1.80;;;;;;;;;;4357303;32;20244;-79
2021/07/29 14:11:13;;;;;;;10.00;2.20;;;;;;;;;;4393457;32;20235;-73
2021/07/29 14:13:39;;;;;;;7.25;2.05;;;;;;;;;;4353328;32;20167;-77
2021/07/29 14:16:05;;;;;;;8.35;2.00;;;;;;;;;;4371727;32;20520;-78
2021/07/29 14:18:30;;;;;;;8.52;1.70;;;;;;;;;;4356335;33;20212;-78
2021/07/29 14:21:10;;;;;;;8.43;1.80;;;;;;;;;;4359608;32;20178;-78
2021/07/29 14:23:35;;;;;;;4.10;1.40;;;;;;;;;;4358684;33;20631;-79
2021/07/29 14:26:00;;;;;;;5.70;1.73;;;;;;;;;;4358638;32;20164;-79
2021/07/29 14:28:26;;;;;;;5.57;2.22;;;;;;;;;;4359027;32;20189;-72
2021/07/29 14:30:53;;;;;;;7.32;1.77;;;;;;;;;;4357573;32;20608;-78
2021/07/29 14:33:21;;;;;;;7.40;1.92;;;;;;;;;;4350834;32;20208;-79
2021/07/29 14:35:49;;;;;;;6.30;1.77;;;;;;;;;;4348243;32;20166;-76
2021/07/29 14:38:16;;;;;;;8.43;1.92;;;;;;;;;;4350548;33;20263;-74
2021/07/29 14:40:44;;;;;;;4.72;1.90;;;;;;;;;;4349649;33;20528;-78
2021/07/29 14:43:13;;;;;;;4.93;1.95;;;;;;;;;;4345687;33;20198;-79
2021/07/29 14:50:52;;;;;;;9.00;2.25;;;;;;;;;;4355133;32;20218;-79
2021/07/29 14:53:18;;;;;;;6.20;1.77;;;;;;;;;;4352255;32;20230;-78
2021/07/29 16:09:23;;;;;;;6.10;2.00;;;;;;;;;;4358793;33;20191;-75
2021/07/29 16:11:49;;;;;;;7.15;1.98;;;;;;;;;;4345710;33;20556;-76
2021/07/29 16:14:25;;;;;;;6.40;2.08;;;;;;;;;;4345335;33;20163;-76
2021/07/29 16:16:50;;;;;;;5.37;1.83;;;;;;;;;;4347009;32;20194;-80
2021/07/29 16:19:16;;;;;;;7.45;2.10;;;;;;;;;;4421213;32;20163;-79
2021/07/29 16:21:42;;;;;;;7.50;1.73;;;;;;;;;;4354995;32;20229;-76
2021/07/29 16:24:08;;;;;;;7.45;2.17;;;;;;;;;;4347339;32;20185;-78
2021/07/29 16:26:33;;;;;;;4.82;2.08;;;;;;;;;;4359573;32;20175;-79
2021/07/29 16:29:01;;;;;;;6.82;2.05;;;;;;;;;;4353124;32;20159;-76
2021/07/29 16:31:26;;;;;;;7.00;2.08;;;;;;;;;;4347250;32;20179;-78